createdAt,value
2017-10-16T00:00:04.885Z,101039.97
2017-10-16T00:01:10.457Z,101040.53
2017-10-16T00:02:17.015Z,101046.21
2017-10-16T00:03:23.371Z,101040.48
2017-10-16T00:04:29.125Z,101039.01
2017-10-16T00:05:34.889Z,101040.11
2017-10-16T00:06:40.644Z,101038.39
2017-10-16T00:07:46.465Z,101032.23
2017-10-16T00:08:52.224Z,101032.87
2017-10-16T00:09:57.967Z,101040.73
2017-10-16T00:11:03.716Z,101040.97
2017-10-16T00:12:09.497Z,101039.27
2017-10-16T00:13:15.273Z,101039.09
2017-10-16T00:14:20.836Z,101040.13
2017-10-16T00:15:26.589Z,101037.39
2017-10-16T00:16:32.126Z,101040.60
2017-10-16T00:17:37.931Z,101044.02
2017-10-16T00:18:43.707Z,101040.04
2017-10-16T00:19:49.512Z,101038.09
2017-10-16T00:20:55.296Z,101040.41
2017-10-16T00:22:01.044Z,101040.67
2017-10-16T00:23:06.810Z,101035.78
2017-10-16T00:24:12.587Z,101043.69
2017-10-16T00:25:18.336Z,101042.56
2017-10-16T00:26:24.093Z,101045.78
2017-10-16T00:27:29.857Z,101042.70
2017-10-16T00:28:35.608Z,101043.33
2017-10-16T00:29:42.168Z,101037.69
2017-10-16T00:30:47.920Z,101043.27
2017-10-16T00:31:54.471Z,101039.63
2017-10-16T00:33:00.228Z,101038.95
2017-10-16T00:34:06.766Z,101039.22
2017-10-16T00:35:12.562Z,101042.30
2017-10-16T00:36:18.337Z,101036.48
2017-10-16T00:37:24.085Z,101043.63
2017-10-16T00:38:29.849Z,101039.22
2017-10-16T00:39:36.197Z,101039.22
2017-10-16T00:40:41.981Z,101041.03
2017-10-16T00:41:47.779Z,101039.27
2017-10-16T00:42:53.529Z,101037.75
2017-10-16T00:43:59.857Z,101038.32
2017-10-16T00:45:05.444Z,101036.44
2017-10-16T00:46:11.234Z,101040.33
2017-10-16T00:47:16.816Z,101041.17
2017-10-16T00:48:23.340Z,101040.75
2017-10-16T00:49:29.107Z,101042.28
2017-10-16T00:50:35.643Z,101038.58
2017-10-16T00:51:42.198Z,101042.16
2017-10-16T00:52:47.969Z,101038.26
2017-10-16T00:53:54.498Z,101036.36
2017-10-16T00:55:00.257Z,101038.17
2017-10-16T00:56:05.443Z,101037.48
2017-10-16T00:57:10.546Z,101035.88
2017-10-16T00:58:15.996Z,101027.91
2017-10-16T00:59:20.885Z,101037.68
2017-10-16T01:00:26.722Z,101037.91
2017-10-16T01:01:33.248Z,101033.98
2017-10-16T01:02:39.032Z,101030.15
2017-10-16T01:03:45.360Z,101028.53
2017-10-16T01:04:51.881Z,101024.48
2017-10-16T01:05:57.657Z,101028.78
2017-10-16T01:07:04.199Z,101027.20
2017-10-16T01:08:11.024Z,101024.21
2017-10-16T01:09:17.409Z,101021.38
2017-10-16T01:10:22.829Z,101028.70
2017-10-16T01:11:28.458Z,101019.19
2017-10-16T01:12:34.233Z,101027.05
2017-10-16T01:13:40.010Z,101026.63
2017-10-16T01:14:45.415Z,101026.91
2017-10-16T01:15:50.316Z,101019.71
2017-10-16T01:16:56.086Z,101020.61
2017-10-16T01:18:01.845Z,101021.80
2017-10-16T01:19:07.632Z,101020.98
2017-10-16T01:20:13.060Z,101019.58
2017-10-16T01:21:18.591Z,101016.08
2017-10-16T01:22:24.065Z,101015.95
2017-10-16T01:23:29.562Z,101017.97
2017-10-16T01:24:34.468Z,101015.11
2017-10-16T01:25:39.535Z,101010.84
2017-10-16T01:26:44.609Z,101010.64
2017-10-16T01:27:50.794Z,101012.59
2017-10-16T01:28:55.871Z,101008.20
2017-10-16T01:30:01.465Z,101011.27
2017-10-16T01:31:07.804Z,101008.04
2017-10-16T01:32:12.703Z,101010.50
2017-10-16T01:33:18.879Z,101001.06
2017-10-16T01:34:23.961Z,101007.19
2017-10-16T01:35:29.828Z,101001.63
2017-10-16T01:36:36.021Z,100998.22
2017-10-16T01:37:40.908Z,101000.36
2017-10-16T01:38:46.536Z,101000.28
2017-10-16T01:39:51.965Z,100999.22
2017-10-16T01:40:58.171Z,100999.30
2017-10-16T01:42:03.872Z,100999.09
2017-10-16T01:43:09.712Z,100999.66
2017-10-16T01:44:15.889Z,100997.05
2017-10-16T01:45:21.316Z,100992.92
2017-10-16T01:46:26.786Z,100994.67
2017-10-16T01:47:31.901Z,100992.71
2017-10-16T01:48:36.975Z,100993.88
2017-10-16T01:49:43.188Z,100991.36
2017-10-16T01:50:48.256Z,100999.30
2017-10-16T01:51:54.170Z,100992.77
2017-10-16T01:52:59.252Z,100994.56
2017-10-16T01:54:04.328Z,100994.22
2017-10-16T01:55:09.746Z,100992.34
2017-10-16T01:56:14.836Z,100995.55
2017-10-16T01:57:19.932Z,100996.78
2017-10-16T01:58:25.697Z,100992.00
2017-10-16T01:59:31.450Z,100994.09
2017-10-16T02:00:36.876Z,100989.34
2017-10-16T02:01:42.673Z,100995.80
2017-10-16T02:02:49.229Z,100989.48
2017-10-16T02:03:54.999Z,100988.58
2017-10-16T02:05:01.349Z,100992.98
2017-10-16T02:06:07.907Z,100990.63
2017-10-16T02:07:13.665Z,100989.82
2017-10-16T02:08:19.469Z,100987.13
2017-10-16T02:09:25.242Z,100991.81
2017-10-16T02:10:31.764Z,100990.41
2017-10-16T02:11:37.541Z,100994.67
2017-10-16T02:12:44.071Z,100986.01
2017-10-16T02:13:49.873Z,100995.57
2017-10-16T02:14:55.643Z,100992.92
2017-10-16T02:16:01.404Z,100993.40
2017-10-16T02:17:07.181Z,100994.30
2017-10-16T02:18:12.944Z,100997.32
2017-10-16T02:19:18.736Z,100995.63
2017-10-16T02:20:25.286Z,100990.48
2017-10-16T02:21:31.814Z,100994.03
2017-10-16T02:22:37.625Z,100995.36
2017-10-16T02:23:43.352Z,100997.63
2017-10-16T02:24:49.756Z,100994.98
2017-10-16T02:25:55.307Z,100999.25
2017-10-16T02:27:01.081Z,100999.67
2017-10-16T02:28:06.838Z,100999.20
2017-10-16T02:29:13.364Z,101003.64
2017-10-16T02:30:18.813Z,100998.34
2017-10-16T02:31:25.342Z,100999.67
2017-10-16T02:32:31.111Z,100995.57
2017-10-16T02:33:36.669Z,100999.20
2017-10-16T02:34:43.533Z,100997.11
2017-10-16T02:35:49.661Z,100992.92
2017-10-16T02:36:56.531Z,100994.93
2017-10-16T02:38:02.589Z,101000.47
2017-10-16T02:39:08.159Z,101002.91
2017-10-16T02:40:13.915Z,100995.39
2017-10-16T02:41:19.724Z,100997.95
2017-10-16T02:42:25.484Z,100996.02
2017-10-16T02:43:31.248Z,100995.04
2017-10-16T02:44:37.012Z,100999.78
2017-10-16T02:45:42.425Z,100998.83
2017-10-16T02:46:48.245Z,100999.86
2017-10-16T02:47:54.006Z,100998.24
2017-10-16T02:48:59.785Z,100997.82
2017-10-16T02:50:05.565Z,100996.02
2017-10-16T02:51:11.134Z,100999.09
2017-10-16T02:52:16.748Z,100991.62
2017-10-16T02:53:22.513Z,100996.02
2017-10-16T02:54:28.292Z,101000.42
2017-10-16T02:55:34.837Z,100992.09
2017-10-16T02:56:42.105Z,100994.41
2017-10-16T02:57:47.913Z,100998.33
2017-10-16T02:58:53.682Z,100996.58
2017-10-16T02:59:59.452Z,100996.02
2017-10-16T03:01:05.209Z,100996.52
2017-10-16T03:02:10.976Z,100997.21
2017-10-16T03:03:16.764Z,100992.39
2017-10-16T03:04:22.536Z,100994.99
2017-10-16T03:05:28.302Z,100994.43
2017-10-16T03:06:34.075Z,100998.11
2017-10-16T03:07:39.841Z,100997.95
2017-10-16T03:08:45.646Z,100995.09
2017-10-16T03:09:51.409Z,100996.89
2017-10-16T03:10:57.203Z,101001.72
2017-10-16T03:12:03.023Z,100999.48
2017-10-16T03:13:09.552Z,101000.95
2017-10-16T03:14:15.358Z,101000.17
2017-10-16T03:15:21.123Z,101001.23
2017-10-16T03:16:26.721Z,100998.22
2017-10-16T03:17:32.489Z,100999.28
2017-10-16T03:18:38.254Z,100995.87
2017-10-16T03:19:44.052Z,101002.33
2017-10-16T03:20:49.816Z,100998.27
2017-10-16T03:21:55.592Z,101000.87
2017-10-16T03:23:02.917Z,101005.13
2017-10-16T03:24:08.707Z,101002.80
2017-10-16T03:25:14.488Z,101001.21
2017-10-16T03:26:20.266Z,101003.56
2017-10-16T03:27:26.041Z,100999.25
2017-10-16T03:28:31.856Z,101001.55
2017-10-16T03:29:37.445Z,101008.78
2017-10-16T03:30:44.008Z,101007.24
2017-10-16T03:31:50.392Z,100998.61
2017-10-16T03:32:55.979Z,101007.38
2017-10-16T03:34:03.245Z,101002.55
2017-10-16T03:35:09.019Z,101009.01
2017-10-16T03:36:15.590Z,101011.73
2017-10-16T03:37:21.364Z,101006.06
2017-10-16T03:38:26.951Z,101006.83
2017-10-16T03:39:33.293Z,101009.14
2017-10-16T03:40:39.069Z,101007.52
2017-10-16T03:41:44.867Z,101007.14
2017-10-16T03:42:50.660Z,101008.16
2017-10-16T03:43:56.420Z,101009.73
2017-10-16T03:45:02.188Z,101009.39
2017-10-16T03:46:08.758Z,101007.59
2017-10-16T03:47:14.569Z,101007.94
2017-10-16T03:48:20.328Z,101008.37
2017-10-16T03:49:26.080Z,101007.47
2017-10-16T03:50:31.844Z,101012.89
2017-10-16T03:51:38.385Z,101008.84
2017-10-16T03:52:44.170Z,101008.28
2017-10-16T03:53:49.931Z,101004.31
2017-10-16T03:54:55.726Z,101006.27
2017-10-16T03:56:02.253Z,101004.39
2017-10-16T03:57:08.020Z,101003.71
2017-10-16T03:58:14.404Z,101012.77
2017-10-16T03:59:20.182Z,101005.17
2017-10-16T04:00:25.951Z,101008.66
2017-10-16T04:01:31.713Z,101006.44
2017-10-16T04:02:38.257Z,101004.01
2017-10-16T04:03:44.052Z,100998.45
2017-10-16T04:04:49.821Z,101003.80
2017-10-16T04:05:55.585Z,101005.70
2017-10-16T04:07:01.356Z,101005.07
2017-10-16T04:08:07.121Z,101005.75
2017-10-16T04:09:12.914Z,101007.00
2017-10-16T04:10:18.684Z,101008.19
2017-10-16T04:11:24.204Z,101006.63
2017-10-16T04:12:30.740Z,101008.58
2017-10-16T04:13:36.509Z,101012.25
2017-10-16T04:14:42.869Z,101011.06
2017-10-16T04:15:48.640Z,101005.84
2017-10-16T04:16:54.223Z,101010.98
2017-10-16T04:17:59.993Z,101014.47
2017-10-16T04:19:05.765Z,101011.32
2017-10-16T04:20:11.370Z,101011.06
2017-10-16T04:21:17.137Z,101014.21
2017-10-16T04:22:22.716Z,101012.42
2017-10-16T04:23:28.507Z,101008.37
2017-10-16T04:24:34.281Z,101013.83
2017-10-16T04:25:41.100Z,101012.50
2017-10-16T04:26:46.869Z,101014.34
2017-10-16T04:27:52.638Z,101012.89
2017-10-16T04:28:58.416Z,101014.34
2017-10-16T04:30:04.998Z,101011.75
2017-10-16T04:31:10.849Z,101013.45
2017-10-16T04:32:16.612Z,101013.02
2017-10-16T04:33:22.435Z,101014.82
2017-10-16T04:34:28.192Z,101018.58
2017-10-16T04:35:33.959Z,101017.46
2017-10-16T04:36:40.165Z,101019.64
2017-10-16T04:37:45.974Z,101021.73
2017-10-16T04:38:51.733Z,101018.36
2017-10-16T04:39:57.520Z,101020.36
2017-10-16T04:41:03.318Z,101012.91
2017-10-16T04:42:09.145Z,101018.95
2017-10-16T04:43:15.681Z,101011.73
2017-10-16T04:44:21.074Z,101016.34
2017-10-16T04:45:26.870Z,101012.86
2017-10-16T04:46:32.454Z,101016.22
2017-10-16T04:47:38.268Z,101010.88
2017-10-16T04:48:44.629Z,101014.38
2017-10-16T04:49:50.680Z,101006.44
2017-10-16T04:50:57.205Z,101011.95
2017-10-16T04:52:03.004Z,101014.77
2017-10-16T04:53:08.810Z,101012.77
2017-10-16T04:54:15.140Z,101014.48
2017-10-16T04:55:20.912Z,101003.78
2017-10-16T04:56:27.102Z,101004.34
2017-10-16T04:57:32.876Z,101007.63
2017-10-16T04:58:38.660Z,101005.46
2017-10-16T04:59:44.474Z,101006.49
2017-10-16T05:00:51.028Z,101003.49
2017-10-16T05:01:56.788Z,101005.28
2017-10-16T05:03:03.116Z,101003.11
2017-10-16T05:04:08.916Z,101010.41
2017-10-16T05:05:14.685Z,101009.41
2017-10-16T05:06:20.394Z,101012.66
2017-10-16T05:07:26.170Z,101013.09
2017-10-16T05:08:31.940Z,101010.69
2017-10-16T05:09:37.757Z,101014.27
2017-10-16T05:10:43.774Z,101013.06
2017-10-16T05:11:49.552Z,101007.53
2017-10-16T05:12:55.355Z,101004.23
2017-10-16T05:14:01.164Z,101003.72
2017-10-16T05:15:06.745Z,101006.77
2017-10-16T05:16:12.521Z,101006.77
2017-10-16T05:17:18.379Z,101005.62
2017-10-16T05:18:24.773Z,101014.23
2017-10-16T05:19:30.557Z,101015.20
2017-10-16T05:20:36.369Z,101013.36
2017-10-16T05:21:42.141Z,101015.77
2017-10-16T05:22:47.917Z,101016.55
2017-10-16T05:23:54.508Z,101023.48
2017-10-16T05:25:00.267Z,101024.08
2017-10-16T05:26:05.871Z,101018.29
2017-10-16T05:27:11.649Z,101021.73
2017-10-16T05:28:17.419Z,101018.69
2017-10-16T05:29:23.417Z,101022.60
2017-10-16T05:30:29.795Z,101021.95
2017-10-16T05:31:35.617Z,101025.83
2017-10-16T05:32:41.380Z,101030.64
2017-10-16T05:33:47.255Z,101023.05
2017-10-16T05:34:56.054Z,101020.48
2017-10-16T05:36:01.818Z,101024.58
2017-10-16T05:37:07.624Z,101018.05
2017-10-16T05:38:13.394Z,101022.36
2017-10-16T05:39:19.183Z,101016.17
2017-10-16T05:40:24.963Z,101015.80
2017-10-16T05:41:31.162Z,101014.42
2017-10-16T05:42:37.333Z,101021.94
2017-10-16T05:43:43.122Z,101024.33
2017-10-16T05:44:48.552Z,101020.93
2017-10-16T05:45:53.469Z,101020.09
2017-10-16T05:46:58.597Z,101022.20
2017-10-16T05:48:05.165Z,101024.34
2017-10-16T05:49:10.977Z,101027.75
2017-10-16T05:50:16.741Z,101018.58
2017-10-16T05:51:22.594Z,101017.68
2017-10-16T05:52:28.011Z,101022.07
2017-10-16T05:53:33.813Z,101018.27
2017-10-16T05:54:39.872Z,101020.98
2017-10-16T05:55:45.401Z,101023.33
2017-10-16T05:56:51.165Z,101025.80
2017-10-16T05:57:56.932Z,101018.52
2017-10-16T05:59:02.787Z,101018.21
2017-10-16T06:00:08.201Z,101029.51
2017-10-16T06:01:14.003Z,101024.80
2017-10-16T06:02:19.770Z,101025.15
2017-10-16T06:03:25.533Z,101026.80
2017-10-16T06:04:31.316Z,101026.02
2017-10-16T06:05:36.408Z,101027.06
2017-10-16T06:06:41.824Z,101020.73
2017-10-16T06:07:47.249Z,101026.13
2017-10-16T06:08:52.321Z,101020.45
2017-10-16T06:09:58.190Z,101031.53
2017-10-16T06:11:03.952Z,101029.59
2017-10-16T06:12:09.726Z,101031.01
2017-10-16T06:13:15.149Z,101033.41
2017-10-16T06:14:20.924Z,101037.75
2017-10-16T06:15:27.314Z,101041.69
2017-10-16T06:16:32.548Z,101043.23
2017-10-16T06:17:38.133Z,101038.94
2017-10-16T06:18:43.885Z,101042.70
2017-10-16T06:19:50.442Z,101041.83
2017-10-16T06:20:55.909Z,101042.39
2017-10-16T06:22:01.678Z,101047.95
2017-10-16T06:23:07.261Z,101058.03
2017-10-16T06:24:13.807Z,101058.98
2017-10-16T06:25:19.564Z,101053.95
2017-10-16T06:26:26.212Z,101052.08
2017-10-16T06:27:31.757Z,101054.33
2017-10-16T06:28:38.256Z,101053.95
2017-10-16T06:29:43.474Z,101056.12
2017-10-16T06:30:49.301Z,101064.41
2017-10-16T06:31:55.507Z,101063.38
2017-10-16T06:33:00.942Z,101067.56
2017-10-16T06:34:06.696Z,101063.47
2017-10-16T06:35:12.959Z,101063.09
2017-10-16T06:36:18.725Z,101058.27
2017-10-16T06:37:25.505Z,101057.59
2017-10-16T06:38:32.020Z,101058.31
2017-10-16T06:39:37.789Z,101062.42
2017-10-16T06:40:43.220Z,101069.55
2017-10-16T06:41:48.992Z,101063.23
2017-10-16T06:42:54.780Z,101065.15
2017-10-16T06:44:00.626Z,101060.84
2017-10-16T06:45:07.172Z,101066.09
2017-10-16T06:46:12.363Z,101069.17
2017-10-16T06:47:18.133Z,101073.23
2017-10-16T06:48:23.749Z,101074.92
2017-10-16T06:49:29.520Z,101072.15
2017-10-16T06:50:35.288Z,101070.27
2017-10-16T06:51:41.045Z,101064.84
2017-10-16T06:52:47.589Z,101060.74
2017-10-16T06:53:54.158Z,101056.22
2017-10-16T06:55:00.496Z,101063.60
2017-10-16T06:56:07.590Z,101061.04
2017-10-16T06:57:13.915Z,101063.98
2017-10-16T06:58:19.693Z,101061.84
2017-10-16T06:59:26.269Z,101066.50
2017-10-16T07:00:31.841Z,101062.47
2017-10-16T07:01:37.600Z,101068.84
2017-10-16T07:02:43.372Z,101057.26
2017-10-16T07:03:49.725Z,101056.02
2017-10-16T07:04:56.280Z,101067.11
2017-10-16T07:06:02.819Z,101063.38
2017-10-16T07:07:08.393Z,101066.98
2017-10-16T07:08:14.169Z,101071.33
2017-10-16T07:09:20.189Z,101068.47
2017-10-16T07:10:26.005Z,101075.30
2017-10-16T07:11:31.761Z,101074.95
2017-10-16T07:12:37.534Z,101075.80
2017-10-16T07:13:43.120Z,101072.60
2017-10-16T07:14:49.661Z,101069.89
2017-10-16T07:15:55.365Z,101070.71
2017-10-16T07:17:01.132Z,101076.89
2017-10-16T07:18:06.910Z,101076.59
2017-10-16T07:19:13.445Z,101073.33
2017-10-16T07:20:19.205Z,101081.58
2017-10-16T07:21:25.769Z,101076.38
2017-10-16T07:22:32.308Z,101071.49
2017-10-16T07:23:39.576Z,101076.53
2017-10-16T07:24:45.377Z,101075.22
2017-10-16T07:25:51.149Z,101070.25
2017-10-16T07:26:56.936Z,101071.37
2017-10-16T07:28:03.466Z,101069.98
2017-10-16T07:29:09.232Z,101076.22
2017-10-16T07:30:15.430Z,101073.92
2017-10-16T07:31:21.205Z,101072.73
2017-10-16T07:32:27.004Z,101079.06
2017-10-16T07:33:32.781Z,101079.29
2017-10-16T07:34:38.554Z,101072.27
2017-10-16T07:35:44.893Z,101073.70
2017-10-16T07:36:50.669Z,101079.91
2017-10-16T07:37:56.314Z,101090.41
2017-10-16T07:39:02.083Z,101091.88
2017-10-16T07:40:07.857Z,101087.55
2017-10-16T07:41:13.648Z,101087.43
2017-10-16T07:42:19.424Z,101090.09
2017-10-16T07:43:25.029Z,101084.83
2017-10-16T07:44:30.804Z,101089.69
2017-10-16T07:45:36.381Z,101086.84
2017-10-16T07:46:42.734Z,101094.57
2017-10-16T07:47:49.311Z,101097.82
2017-10-16T07:48:55.105Z,101092.93
2017-10-16T07:50:00.910Z,101088.93
2017-10-16T07:51:06.675Z,101090.84
2017-10-16T07:52:12.440Z,101087.02
2017-10-16T07:53:18.205Z,101087.08
2017-10-16T07:54:24.766Z,101093.05
2017-10-16T07:55:31.285Z,101085.89
2017-10-16T07:56:37.431Z,101083.54
2017-10-16T07:57:42.992Z,101074.36
2017-10-16T07:58:48.780Z,101076.49
2017-10-16T07:59:54.569Z,101077.28
2017-10-16T08:01:01.107Z,101077.34
2017-10-16T08:02:06.865Z,101083.62
2017-10-16T08:03:12.624Z,101082.80
2017-10-16T08:04:19.162Z,101078.38
2017-10-16T08:05:25.720Z,101077.41
2017-10-16T08:06:31.527Z,101080.48
2017-10-16T08:07:37.301Z,101081.14
2017-10-16T08:08:43.057Z,101073.24
2017-10-16T08:09:48.824Z,101073.56
2017-10-16T08:10:55.177Z,101071.72
2017-10-16T08:12:01.719Z,101067.31
2017-10-16T08:13:07.756Z,101077.55
2017-10-16T08:14:13.516Z,101080.24
2017-10-16T08:15:19.276Z,101081.55
2017-10-16T08:16:25.837Z,101080.87
2017-10-16T08:17:32.353Z,101081.69
2017-10-16T08:18:38.124Z,101076.63
2017-10-16T08:19:43.907Z,101079.81
2017-10-16T08:20:49.665Z,101078.77
2017-10-16T08:21:55.453Z,101079.18
2017-10-16T08:23:01.644Z,101072.44
2017-10-16T08:24:06.721Z,101069.72
2017-10-16T08:25:12.127Z,101069.94
2017-10-16T08:26:17.265Z,101067.87
2017-10-16T08:27:22.364Z,101059.81
2017-10-16T08:28:27.425Z,101060.70
2017-10-16T08:29:33.206Z,101058.53
2017-10-16T08:30:39.389Z,101058.64
2017-10-16T08:31:44.797Z,101070.63
2017-10-16T08:32:50.248Z,101065.64
2017-10-16T08:33:55.329Z,101071.58
2017-10-16T08:35:00.400Z,101078.14
2017-10-16T08:36:05.472Z,101077.52
2017-10-16T08:37:10.357Z,101075.93
2017-10-16T08:38:15.265Z,101074.70
2017-10-16T08:39:20.483Z,101084.56
2017-10-16T08:40:26.037Z,101076.35
2017-10-16T08:41:31.097Z,101086.97
2017-10-16T08:42:35.989Z,101082.56
2017-10-16T08:43:41.080Z,101080.98
2017-10-16T08:44:46.912Z,101082.76
2017-10-16T08:45:53.097Z,101084.77
2017-10-16T08:46:58.171Z,101079.84
2017-10-16T08:48:04.071Z,101086.03
2017-10-16T08:49:09.514Z,101085.19
2017-10-16T08:50:15.317Z,101083.12
2017-10-16T08:51:21.164Z,101085.77
2017-10-16T08:52:25.986Z,101083.95
2017-10-16T08:53:31.064Z,101085.44
2017-10-16T08:54:36.498Z,101085.73
2017-10-16T08:55:41.916Z,101081.52
2017-10-16T08:56:47.920Z,101079.95
2017-10-16T08:57:53.603Z,101088.31
2017-10-16T08:58:59.015Z,101085.99
2017-10-16T09:00:04.549Z,101083.07
2017-10-16T09:01:09.972Z,101084.94
2017-10-16T09:02:15.041Z,101086.70
2017-10-16T09:03:20.137Z,101091.28
2017-10-16T09:04:25.567Z,101088.20
2017-10-16T09:05:30.808Z,101091.13
2017-10-16T09:06:35.724Z,101082.98
2017-10-16T09:07:40.780Z,101085.64
2017-10-16T09:08:46.584Z,101087.86
2017-10-16T09:09:51.652Z,101086.22
2017-10-16T09:10:56.745Z,101083.10
2017-10-16T09:12:01.821Z,101082.57
2017-10-16T09:13:07.242Z,101083.20
2017-10-16T09:14:12.325Z,101082.22
2017-10-16T09:15:17.388Z,101075.64
2017-10-16T09:16:22.839Z,101079.16
2017-10-16T09:17:28.244Z,101079.69
2017-10-16T09:18:33.327Z,101083.41
2017-10-16T09:19:38.205Z,101079.78
2017-10-16T09:20:43.287Z,101077.41
2017-10-16T09:21:48.384Z,101078.00
2017-10-16T09:22:54.228Z,101075.25
2017-10-16T09:24:00.116Z,101078.39
2017-10-16T09:25:05.210Z,101074.67
2017-10-16T09:26:10.044Z,101075.04
2017-10-16T09:27:15.497Z,101065.40
2017-10-16T09:28:20.561Z,101072.13
2017-10-16T09:29:26.038Z,101071.12
2017-10-16T09:30:31.460Z,101075.53
2017-10-16T09:31:36.884Z,101082.33
2017-10-16T09:32:42.568Z,101077.84
2017-10-16T09:33:47.981Z,101070.26
2017-10-16T09:34:53.047Z,101075.42
2017-10-16T09:35:58.134Z,101080.33
2017-10-16T09:37:03.224Z,101077.34
2017-10-16T09:38:08.326Z,101071.83
2017-10-16T09:39:13.420Z,101072.30
2017-10-16T09:40:18.494Z,101072.56
2017-10-16T09:41:23.584Z,101066.01
2017-10-16T09:42:28.472Z,101074.37
2017-10-16T09:43:33.924Z,101083.06
2017-10-16T09:44:39.337Z,101077.04
2017-10-16T09:45:44.220Z,101076.36
2017-10-16T09:46:49.631Z,101071.98
2017-10-16T09:47:54.697Z,101078.66
2017-10-16T09:49:00.561Z,101077.50
2017-10-16T09:50:06.401Z,101076.60
2017-10-16T09:51:11.478Z,101071.13
2017-10-16T09:52:16.541Z,101063.22
2017-10-16T09:53:22.731Z,101058.16
2017-10-16T09:54:28.198Z,101067.86
2017-10-16T09:55:33.964Z,101066.30
2017-10-16T09:56:40.148Z,101071.48
2017-10-16T09:57:45.219Z,101067.51
2017-10-16T09:58:50.662Z,101065.34
2017-10-16T09:59:57.272Z,101067.34
2017-10-16T10:01:02.697Z,101067.75
2017-10-16T10:02:07.593Z,101069.83
2017-10-16T10:03:13.783Z,101070.87
2017-10-16T10:04:19.196Z,101076.65
2017-10-16T10:05:24.668Z,101077.16
2017-10-16T10:06:30.449Z,101079.36
2017-10-16T10:07:35.329Z,101076.74
2017-10-16T10:08:40.418Z,101074.55
2017-10-16T10:09:45.534Z,101081.13
2017-10-16T10:10:51.442Z,101072.48
2017-10-16T10:11:56.874Z,101066.91
2017-10-16T10:13:01.960Z,101070.83
2017-10-16T10:14:07.045Z,101071.53
2017-10-16T10:15:13.632Z,101072.91
2017-10-16T10:16:19.113Z,101070.14
2017-10-16T10:17:24.554Z,101067.34
2017-10-16T10:18:30.459Z,101066.61
2017-10-16T10:19:35.549Z,101072.23
2017-10-16T10:20:41.307Z,101074.50
2017-10-16T10:21:47.858Z,101078.67
2017-10-16T10:22:54.221Z,101077.84
2017-10-16T10:24:00.581Z,101074.09
2017-10-16T10:25:06.779Z,101077.56
2017-10-16T10:26:12.551Z,101074.95
2017-10-16T10:27:18.176Z,101079.10
2017-10-16T10:28:23.942Z,101079.20
2017-10-16T10:29:30.486Z,101073.81
2017-10-16T10:30:36.328Z,101082.81
2017-10-16T10:31:42.693Z,101074.13
2017-10-16T10:32:48.488Z,101073.28
2017-10-16T10:33:54.291Z,101076.55
2017-10-16T10:35:00.849Z,101075.60
2017-10-16T10:36:07.400Z,101080.95
2017-10-16T10:37:13.175Z,101086.98
2017-10-16T10:38:18.976Z,101089.89
2017-10-16T10:39:24.744Z,101083.36
2017-10-16T10:40:30.518Z,101078.39
2017-10-16T10:41:36.289Z,101082.42
2017-10-16T10:42:42.093Z,101074.84
2017-10-16T10:43:47.873Z,101082.42
2017-10-16T10:44:53.649Z,101077.44
2017-10-16T10:45:59.420Z,101070.70
2017-10-16T10:47:05.204Z,101071.79
2017-10-16T10:48:10.974Z,101074.97
2017-10-16T10:49:17.560Z,101070.63
2017-10-16T10:50:23.336Z,101075.81
2017-10-16T10:51:29.120Z,101075.97
2017-10-16T10:52:35.652Z,101080.72
2017-10-16T10:53:42.924Z,101077.37
2017-10-16T10:54:48.385Z,101080.39
2017-10-16T10:55:54.930Z,101083.83
2017-10-16T10:57:00.705Z,101084.25
2017-10-16T10:58:06.472Z,101081.44
2017-10-16T10:59:12.245Z,101077.83
2017-10-16T11:00:18.120Z,101080.89
2017-10-16T11:01:24.650Z,101078.45
2017-10-16T11:02:31.217Z,101074.92
2017-10-16T11:03:37.795Z,101077.42
2017-10-16T11:04:44.329Z,101086.66
2017-10-16T11:05:50.128Z,101076.31
2017-10-16T11:06:55.896Z,101078.90
2017-10-16T11:08:01.693Z,101084.88
2017-10-16T11:09:07.873Z,101079.90
2017-10-16T11:10:13.742Z,101077.02
2017-10-16T11:11:19.554Z,101076.47
2017-10-16T11:12:25.334Z,101080.94
2017-10-16T11:13:30.925Z,101078.49
2017-10-16T11:14:36.685Z,101071.84
2017-10-16T11:15:41.556Z,101074.48
2017-10-16T11:16:48.126Z,101069.94
2017-10-16T11:17:54.309Z,101072.12
2017-10-16T11:19:00.080Z,101071.93
2017-10-16T11:20:05.857Z,101067.43
2017-10-16T11:21:11.535Z,101070.84
2017-10-16T11:22:17.656Z,101075.93
2017-10-16T11:23:23.489Z,101068.48
2017-10-16T11:24:29.367Z,101067.69
2017-10-16T11:25:34.428Z,101071.90
2017-10-16T11:26:39.513Z,101067.49
2017-10-16T11:27:44.603Z,101064.74
2017-10-16T11:28:49.943Z,101063.52
2017-10-16T11:29:55.799Z,101062.97
2017-10-16T11:31:01.597Z,101058.62
2017-10-16T11:32:07.013Z,101056.50
2017-10-16T11:33:12.469Z,101064.09
2017-10-16T11:34:17.578Z,101055.36
2017-10-16T11:35:22.644Z,101057.98
2017-10-16T11:36:27.738Z,101058.11
2017-10-16T11:37:33.213Z,101059.02
2017-10-16T11:38:38.573Z,101056.53
2017-10-16T11:39:43.980Z,101055.67
2017-10-16T11:40:49.617Z,101051.64
2017-10-16T11:41:55.796Z,101054.89
2017-10-16T11:43:00.877Z,101051.90
2017-10-16T11:44:05.966Z,101058.05
2017-10-16T11:45:11.038Z,101055.67
2017-10-16T11:46:17.227Z,101057.87
2017-10-16T11:47:22.649Z,101059.16
2017-10-16T11:48:27.704Z,101057.00
2017-10-16T11:49:32.808Z,101060.80
2017-10-16T11:50:38.220Z,101050.63
2017-10-16T11:51:44.060Z,101056.12
2017-10-16T11:52:50.238Z,101051.97
2017-10-16T11:53:55.664Z,101054.31
2017-10-16T11:55:02.200Z,101048.87
2017-10-16T11:56:08.383Z,101051.44
2017-10-16T11:57:13.462Z,101045.83
2017-10-16T11:58:18.936Z,101046.34
2017-10-16T11:59:24.356Z,101040.23
2017-10-16T12:00:30.265Z,101042.15
2017-10-16T12:01:35.372Z,101045.30
2017-10-16T12:02:40.502Z,101041.69
2017-10-16T12:03:45.737Z,101044.92
2017-10-16T12:04:50.803Z,101043.30
2017-10-16T12:05:56.414Z,101036.09
2017-10-16T12:07:01.494Z,101040.47
2017-10-16T12:08:06.574Z,101047.58
2017-10-16T12:09:11.677Z,101038.66
2017-10-16T12:10:16.793Z,101048.80
2017-10-16T12:11:21.948Z,101042.58
2017-10-16T12:12:27.061Z,101040.55
2017-10-16T12:13:32.165Z,101035.59
2017-10-16T12:14:37.237Z,101036.02
2017-10-16T12:15:42.304Z,101031.78
2017-10-16T12:16:47.824Z,101035.94
2017-10-16T12:17:53.766Z,101031.98
2017-10-16T12:18:59.365Z,101033.67
2017-10-16T12:20:04.497Z,101032.48
2017-10-16T12:21:09.557Z,101030.44
2017-10-16T12:22:15.592Z,101030.95
2017-10-16T12:23:21.492Z,101032.02
2017-10-16T12:24:26.558Z,101030.28
2017-10-16T12:25:31.753Z,101029.06
2017-10-16T12:26:37.324Z,101031.31
2017-10-16T12:27:42.407Z,101026.70
2017-10-16T12:28:47.812Z,101030.19
2017-10-16T12:29:53.559Z,101027.91